sensor_id;sensor_type;location;lat;lon;timestamp;pressure;altitude;pressure_sealevel;temperature;humidity
11542;BME280;5827;49.482;7.716;2023-05-12T00:01:55;98568.72;;;14.05;100.00
11542;BME280;5827;49.482;7.716;2023-05-12T00:03:56;98563.91;;;14.02;100.00
11542;BME280;5827;49.482;7.716;2023-05-12T00:05:59;98559.56;;;14.01;100.00
11542;BME280;5827;49.482;7.716;2023-05-12T00:08:04;98563.34;;;14.05;100.00
11542;BME280;5827;49.482;7.716;2023-05-12T00:10:06;98561.72;;;14.09;100.00
11542;BME280;5827;49.482;7.716;2023-05-12T00:12:08;98554.47;;;14.05;100.00
11542;BME280;5827;49.482;7.716;2023-05-12T00:14:10;98558.50;;;14.02;100.00
11542;BME280;5827;49.482;7.716;2023-05-12T00:16:11;98558.50;;;14.02;100.00
11542;BME280;5827;49.482;7.716;2023-05-12T00:18:14;98561.44;;;14.11;100.00
11542;BME280;5827;49.482;7.716;2023-05-12T00:20:16;98563.59;;;14.14;100.00
11542;BME280;5827;49.482;7.716;2023-05-12T00:22:17;98553.09;;;14.12;100.00
11542;BME280;5827;49.482;7.716;2023-05-12T00:24:20;98555.00;;;14.07;100.00
11542;BME280;5827;49.482;7.716;2023-05-12T00:26:22;98556.88;;;14.21;100.00
11542;BME280;5827;49.482;7.716;2023-05-12T00:28:23;98551.19;;;14.28;100.00
11542;BME280;5827;49.482;7.716;2023-05-12T00:30:25;98549.84;;;14.36;100.00
11542;BME280;5827;49.482;7.716;2023-05-12T00:32:26;98559.53;;;14.37;100.00
11542;BME280;5827;49.482;7.716;2023-05-12T00:34:28;98548.50;;;14.28;100.00
11542;BME280;5827;49.482;7.716;2023-05-12T00:36:29;98550.66;;;14.11;100.00
11542;BME280;5827;49.482;7.716;2023-05-12T00:38:31;98551.22;;;14.13;100.00
11542;BME280;5827;49.482;7.716;2023-05-12T00:40:35;98546.38;;;13.94;100.00
11542;BME280;5827;49.482;7.716;2023-05-12T00:42:36;98546.38;;;13.99;100.00
11542;BME280;5827;49.482;7.716;2023-05-12T00:44:38;98546.06;;;14.27;100.00
11542;BME280;5827;49.482;7.716;2023-05-12T00:46:40;98541.75;;;14.31;100.00
11542;BME280;5827;49.482;7.716;2023-05-12T00:48:42;98542.31;;;14.17;100.00
11542;BME280;5827;49.482;7.716;2023-05-12T00:50:43;98538.00;;;14.06;100.00
11542;BME280;5827;49.482;7.716;2023-05-12T00:52:45;98543.38;;;14.27;100.00
11542;BME280;5827;49.482;7.716;2023-05-12T00:54:47;98539.63;;;14.22;100.00
11542;BME280;5827;49.482;7.716;2023-05-12T00:56:51;98539.91;;;14.21;100.00
11542;BME280;5827;49.482;7.716;2023-05-12T00:58:52;98535.31;;;14.16;100.00
11542;BME280;5827;49.482;7.716;2023-05-12T01:00:54;98538.03;;;14.11;100.00
11542;BME280;5827;49.482;7.716;2023-05-12T01:02:56;98535.34;;;14.11;100.00
11542;BME280;5827;49.482;7.716;2023-05-12T01:04:58;98530.47;;;14.18;100.00
11542;BME280;5827;49.482;7.716;2023-05-12T01:07:03;98530.19;;;14.10;100.00
11542;BME280;5827;49.482;7.716;2023-05-12T01:09:09;98529.13;;;14.21;100.00
11542;BME280;5827;49.482;7.716;2023-05-12T01:11:11;98533.09;;;14.34;100.00
11542;BME280;5827;49.482;7.716;2023-05-12T01:13:14;98527.50;;;14.25;100.00
11542;BME280;5827;49.482;7.716;2023-05-12T01:15:15;98525.09;;;14.08;100.00
11542;BME280;5827;49.482;7.716;2023-05-12T01:17:19;98523.47;;;14.12;100.00
11542;BME280;5827;49.482;7.716;2023-05-12T01:19:33;98527.25;;;14.11;100.00
11542;BME280;5827;49.482;7.716;2023-05-12T01:21:38;98528.84;;;14.22;100.00
11542;BME280;5827;49.482;7.716;2023-05-12T01:23:45;98527.22;;;14.21;100.00
11542;BME280;5827;49.482;7.716;2023-05-12T01:25:49;98530.94;;;14.41;100.00
11542;BME280;5827;49.482;7.716;2023-05-12T01:27:52;98530.69;;;14.37;100.00
11542;BME280;5827;49.482;7.716;2023-05-12T01:29:56;98524.81;;;14.25;100.00
11542;BME280;5827;49.482;7.716;2023-05-12T01:31:58;98526.66;;;14.35;100.00
11542;BME280;5827;49.482;7.716;2023-05-12T01:34:00;98526.91;;;14.43;100.00
11542;BME280;5827;49.482;7.716;2023-05-12T01:36:02;98526.91;;;14.33;100.00
11542;BME280;5827;49.482;7.716;2023-05-12T01:38:03;98522.34;;;14.29;100.00
11542;BME280;5827;49.482;7.716;2023-05-12T01:40:05;98523.72;;;14.21;100.00
11542;BME280;5827;49.482;7.716;2023-05-12T01:42:07;98523.75;;;14.16;100.00
11542;BME280;5827;49.482;7.716;2023-05-12T01:44:10;98521.03;;;14.21;100.00
11542;BME280;5827;49.482;7.716;2023-05-12T01:46:12;98522.38;;;14.18;100.00
11542;BME280;5827;49.482;7.716;2023-05-12T01:48:13;98526.44;;;14.16;100.00
11542;BME280;5827;49.482;7.716;2023-05-12T01:50:15;98527.00;;;14.08;100.00
11542;BME280;5827;49.482;7.716;2023-05-12T01:52:16;98524.00;;;14.14;100.00
11542;BME280;5827;49.482;7.716;2023-05-12T01:54:18;98522.69;;;14.07;100.00
11542;BME280;5827;49.482;7.716;2023-05-12T01:56:20;98524.28;;;14.08;100.00
11542;BME280;5827;49.482;7.716;2023-05-12T01:58:22;98523.72;;;14.11;100.00
11542;BME280;5827;49.482;7.716;2023-05-12T02:00:25;98522.66;;;14.17;100.00
11542;BME280;5827;49.482;7.716;2023-05-12T02:02:26;98519.16;;;14.11;100.00
11542;BME280;5827;49.482;7.716;2023-05-12T02:04:29;98516.22;;;13.97;100.00
11542;BME280;5827;49.482;7.716;2023-05-12T02:06:30;98519.97;;;14.02;100.00
11542;BME280;5827;49.482;7.716;2023-05-12T02:08:32;98525.63;;;14.00;100.00
11542;BME280;5827;49.482;7.716;2023-05-12T02:10:33;98524.81;;;14.05;100.00
11542;BME280;5827;49.482;7.716;2023-05-12T02:12:35;98526.69;;;14.09;100.00
11542;BME280;5827;49.482;7.716;2023-05-12T02:14:36;98529.13;;;14.11;100.00
11542;BME280;5827;49.482;7.716;2023-05-12T02:16:39;98529.94;;;14.16;100.00
11542;BME280;5827;49.482;7.716;2023-05-12T02:18:41;98522.91;;;14.31;100.00
11542;BME280;5827;49.482;7.716;2023-05-12T02:20:42;98531.53;;;14.17;100.00
11542;BME280;5827;49.482;7.716;2023-05-12T02:22:44;98522.41;;;14.08;100.00
11542;BME280;5827;49.482;7.716;2023-05-12T02:24:45;98523.97;;;14.19;100.00
11542;BME280;5827;49.482;7.716;2023-05-12T02:26:47;98522.38;;;14.18;100.00
11542;BME280;5827;49.482;7.716;2023-05-12T02:28:48;98521.03;;;14.26;100.00
11542;BME280;5827;49.482;7.716;2023-05-12T02:30:50;98531.00;;;14.20;100.00
11542;BME280;5827;49.482;7.716;2023-05-12T02:32:53;98524.25;;;14.18;100.00
11542;BME280;5827;49.482;7.716;2023-05-12T02:34:55;98528.56;;;14.19;100.00
11542;BME280;5827;49.482;7.716;2023-05-12T02:36:56;98522.09;;;14.20;100.00
11542;BME280;5827;49.482;7.716;2023-05-12T02:38:58;98527.47;;;14.20;100.00
11542;BME280;5827;49.482;7.716;2023-05-12T02:40:59;98516.69;;;14.20;100.00
11542;BME280;5827;49.482;7.716;2023-05-12T02:43:01;98520.75;;;14.22;100.00
11542;BME280;5827;49.482;7.716;2023-05-12T02:45:03;98520.75;;;14.22;100.00
11542;BME280;5827;49.482;7.716;2023-05-12T02:47:05;98515.09;;;14.19;100.00
11542;BME280;5827;49.482;7.716;2023-05-12T02:49:08;98521.59;;;14.13;100.00
11542;BME280;5827;49.482;7.716;2023-05-12T02:51:10;98519.16;;;14.16;100.00
11542;BME280;5827;49.482;7.716;2023-05-12T02:53:11;98514.28;;;14.18;100.00
11542;BME280;5827;49.482;7.716;2023-05-12T02:55:12;98517.81;;;14.14;100.00
11542;BME280;5827;49.482;7.716;2023-05-12T02:57:14;98519.16;;;14.16;100.00
11542;BME280;5827;49.482;7.716;2023-05-12T02:59:15;98513.78;;;14.11;100.00
11542;BME280;5827;49.482;7.716;2023-05-12T03:01:17;98517.03;;;14.03;100.00
11542;BME280;5827;49.482;7.716;2023-05-12T03:03:18;98510.25;;;14.06;100.00
11542;BME280;5827;49.482;7.716;2023-05-12T03:05:21;98521.84;;;14.06;100.00
11542;BME280;5827;49.482;7.716;2023-05-12T03:07:23;98513.50;;;14.13;100.00
11542;BME280;5827;49.482;7.716;2023-05-12T03:09:26;98521.31;;;14.04;100.00
11542;BME280;5827;49.482;7.716;2023-05-12T03:11:27;98521.88;;;13.96;100.00
11542;BME280;5827;49.482;7.716;2023-05-12T03:13:29;98519.47;;;13.94;100.00
11542;BME280;5827;49.482;7.716;2023-05-12T03:15:30;98527.81;;;13.93;100.00
11542;BME280;5827;49.482;7.716;2023-05-12T03:17:32;98524.84;;;13.94;100.00
11542;BME280;5827;49.482;7.716;2023-05-12T03:19:33;98514.88;;;13.85;100.00
11542;BME280;5827;49.482;7.716;2023-05-12T03:21:37;98518.66;;;13.84;100.00
11542;BME280;5827;49.482;7.716;2023-05-12T03:23:38;98524.06;;;13.84;100.00
11542;BME280;5827;49.482;7.716;2023-05-12T03:25:40;98525.66;;;13.90;100.00
11542;BME280;5827;49.482;7.716;2023-05-12T03:27:41;98528.09;;;13.81;100.00
11542;BME280;5827;49.482;7.716;2023-05-12T03:29:43;98521.09;;;13.80;100.00
11542;BME280;5827;49.482;7.716;2023-05-12T03:31:45;98522.41;;;13.88;100.00
11542;BME280;5827;49.482;7.716;2023-05-12T03:33:46;98530.50;;;13.93;100.00
11542;BME280;5827;49.482;7.716;2023-05-12T03:35:48;98519.72;;;13.88;100.00
11542;BME280;5827;49.482;7.716;2023-05-12T03:37:50;98522.44;;;13.93;100.00
11542;BME280;5827;49.482;7.716;2023-05-12T03:39:52;98522.16;;;13.94;100.00
11542;BME280;5827;49.482;7.716;2023-05-12T03:41:55;98521.31;;;14.09;100.00
11542;BME280;5827;49.482;7.716;2023-05-12T03:43:56;98523.50;;;14.07;100.00
11542;BME280;5827;49.482;7.716;2023-05-12T03:45:58;98517.53;;;14.10;100.00
11542;BME280;5827;49.482;7.716;2023-05-12T03:47:59;98519.72;;;14.08;100.00
11542;BME280;5827;49.482;7.716;2023-05-12T03:50:01;98519.97;;;14.12;100.00
11542;BME280;5827;49.482;7.716;2023-05-12T03:52:03;98515.66;;;14.11;100.00
11542;BME280;5827;49.482;7.716;2023-05-12T03:54:06;98517.81;;;14.09;100.00
11542;BME280;5827;49.482;7.716;2023-05-12T03:56:07;98514.06;;;14.05;100.00
11542;BME280;5827;49.482;7.716;2023-05-12T03:58:09;98522.94;;;14.05;100.00
11542;BME280;5827;49.482;7.716;2023-05-12T04:00:11;98521.31;;;14.14;100.00
11542;BME280;5827;49.482;7.716;2023-05-12T04:02:13;98521.31;;;14.14;100.00
11542;BME280;5827;49.482;7.716;2023-05-12T04:04:14;98516.44;;;14.21;100.00
11542;BME280;5827;49.482;7.716;2023-05-12T04:06:16;98508.38;;;14.21;100.00
11542;BME280;5827;49.482;7.716;2023-05-12T04:08:17;98510.00;;;14.12;100.00
11542;BME280;5827;49.482;7.716;2023-05-12T04:10:20;98515.97;;;13.94;100.00
11542;BME280;5827;49.482;7.716;2023-05-12T04:12:22;98509.75;;;14.04;100.00
11542;BME280;5827;49.482;7.716;2023-05-12T04:14:23;98515.13;;;14.09;100.00
11542;BME280;5827;49.482;7.716;2023-05-12T04:16:25;98518.63;;;14.09;100.00
11542;BME280;5827;49.482;7.716;2023-05-12T04:18:27;98518.63;;;14.09;100.00
11542;BME280;5827;49.482;7.716;2023-05-12T04:20:29;98518.38;;;13.95;100.00
11542;BME280;5827;49.482;7.716;2023-05-12T04:22:30;98513.78;;;13.96;100.00
11542;BME280;5827;49.482;7.716;2023-05-12T04:24:32;98518.09;;;13.87;100.00
11542;BME280;5827;49.482;7.716;2023-05-12T04:26:34;98510.03;;;13.92;100.00
11542;BME280;5827;49.482;7.716;2023-05-12T04:28:36;98519.47;;;13.79;100.00
11542;BME280;5827;49.482;7.716;2023-05-12T04:30:38;98518.91;;;13.87;100.00
11542;BME280;5827;49.482;7.716;2023-05-12T04:32:39;98521.09;;;13.85;100.00
11542;BME280;5827;49.482;7.716;2023-05-12T04:34:41;98522.97;;;13.80;100.00
11542;BME280;5827;49.482;7.716;2023-05-12T04:36:42;98521.59;;;13.87;100.00
11542;BME280;5827;49.482;7.716;2023-05-12T04:38:43;98527.28;;;13.86;100.00
11542;BME280;5827;49.482;7.716;2023-05-12T04:40:45;98528.88;;;13.97;100.00
11542;BME280;5827;49.482;7.716;2023-05-12T04:42:48;98528.31;;;14.20;100.00
11542;BME280;5827;49.482;7.716;2023-05-12T04:44:50;98530.19;;;14.20;100.00
11542;BME280;5827;49.482;7.716;2023-05-12T04:46:52;98531.81;;;14.26;100.00
11542;BME280;5827;49.482;7.716;2023-05-12T04:48:55;98526.94;;;14.28;100.00
11542;BME280;5827;49.482;7.716;2023-05-12T04:50:57;98536.13;;;14.12;100.00
11542;BME280;5827;49.482;7.716;2023-05-12T04:52:59;98531.25;;;14.19;100.00
11542;BME280;5827;49.482;7.716;2023-05-12T04:55:00;98536.41;;;13.95;100.00
11542;BME280;5827;49.482;7.716;2023-05-12T04:57:02;98531.56;;;14.02;100.00
11542;BME280;5827;49.482;7.716;2023-05-12T04:59:05;98532.09;;;14.09;100.00
11542;BME280;5827;49.482;7.716;2023-05-12T05:01:06;98537.78;;;14.03;100.00
11542;BME280;5827;49.482;7.716;2023-05-12T05:03:08;98538.03;;;13.91;100.00
11542;BME280;5827;49.482;7.716;2023-05-12T05:05:09;98537.44;;;14.24;100.00
11542;BME280;5827;49.482;7.716;2023-05-12T05:07:11;98548.00;;;14.16;100.00
11542;BME280;5827;49.482;7.716;2023-05-12T05:09:13;98548.22;;;14.19;100.00
11542;BME280;5827;49.482;7.716;2023-05-12T05:11:14;98547.97;;;14.06;100.00
11542;BME280;5827;49.482;7.716;2023-05-12T05:13:16;98557.38;;;14.39;100.00
11542;BME280;5827;49.482;7.716;2023-05-12T05:15:19;98552.78;;;14.44;100.00
11542;BME280;5827;49.482;7.716;2023-05-12T05:17:20;98561.19;;;14.07;100.00
11542;BME280;5827;49.482;7.716;2023-05-12T05:19:22;98552.84;;;14.09;100.00
11542;BME280;5827;49.482;7.716;2023-05-12T05:21:23;98557.13;;;14.35;100.00
11542;BME280;5827;49.482;7.716;2023-05-12T05:23:25;98553.31;;;14.52;100.00
11542;BME280;5827;49.482;7.716;2023-05-12T05:25:27;98558.72;;;14.52;100.00
11542;BME280;5827;49.482;7.716;2023-05-12T05:27:28;98558.41;;;14.63;100.00
11542;BME280;5827;49.482;7.716;2023-05-12T05:29:30;98563.22;;;14.77;100.00
11542;BME280;5827;49.482;7.716;2023-05-12T05:31:33;98565.16;;;14.61;100.00
11542;BME280;5827;49.482;7.716;2023-05-12T05:33:34;98561.63;;;14.76;100.00
11542;BME280;5827;49.482;7.716;2023-05-12T05:35:36;98570.19;;;14.88;100.00
11542;BME280;5827;49.482;7.716;2023-05-12T05:37:37;98567.25;;;14.79;100.00
11542;BME280;5827;49.482;7.716;2023-05-12T05:39:39;98559.38;;;14.93;100.00
11542;BME280;5827;49.482;7.716;2023-05-12T05:41:40;98563.41;;;14.95;100.00
11542;BME280;5827;49.482;7.716;2023-05-12T05:43:41;98567.97;;;15.00;100.00
11542;BME280;5827;49.482;7.716;2023-05-12T05:45:43;98567.13;;;15.10;100.00
11542;BME280;5827;49.482;7.716;2023-05-12T05:47:46;98569.53;;;15.11;100.00
11542;BME280;5827;49.482;7.716;2023-05-12T05:49:49;98581.97;;;15.12;100.00
11542;BME280;5827;49.482;7.716;2023-05-12T05:51:50;98570.75;;;14.85;100.00
11542;BME280;5827;49.482;7.716;2023-05-12T05:53:51;98571.78;;;14.94;100.00
11542;BME280;5827;49.482;7.716;2023-05-12T05:55:53;98570.63;;;15.10;100.00
11542;BME280;5827;49.482;7.716;2023-05-12T05:57:54;98580.06;;;15.13;100.00
11542;BME280;5827;49.482;7.716;2023-05-12T05:59:56;98575.88;;;14.86;100.00
11542;BME280;5827;49.482;7.716;2023-05-12T06:01:57;98578.84;;;14.74;100.00
11542;BME280;5827;49.482;7.716;2023-05-12T06:04:00;98583.13;;;14.91;100.00
11542;BME280;5827;49.482;7.716;2023-05-12T06:06:02;98587.09;;;15.09;100.00
11542;BME280;5827;49.482;7.716;2023-05-12T06:08:04;98579.78;;;15.14;100.00
11542;BME280;5827;49.482;7.716;2023-05-12T06:10:08;98590.88;;;15.13;100.00
11542;BME280;5827;49.482;7.716;2023-05-12T06:12:09;98594.34;;;15.18;100.00
11542;BME280;5827;49.482;7.716;2023-05-12T06:14:11;98591.63;;;15.18;100.00
11542;BME280;5827;49.482;7.716;2023-05-12T06:16:12;98593.00;;;15.16;100.00
11542;BME280;5827;49.482;7.716;2023-05-12T06:18:14;98600.25;;;15.20;100.00
11542;BME280;5827;49.482;7.716;2023-05-12T06:20:17;98606.06;;;14.83;100.00
11542;BME280;5827;49.482;7.716;2023-05-12T06:22:19;98597.72;;;14.85;100.00
11542;BME280;5827;49.482;7.716;2023-05-12T06:24:20;98610.25;;;15.20;100.00
11542;BME280;5827;49.482;7.716;2023-05-12T06:26:22;98604.47;;;14.82;100.00
11542;BME280;5827;49.482;7.716;2023-05-12T06:28:23;98610.63;;;14.93;100.00
11542;BME280;5827;49.482;7.716;2023-05-12T06:30:25;98607.53;;;15.25;100.00
11542;BME280;5827;49.482;7.716;2023-05-12T06:32:26;98616.41;;;15.31;100.00
11542;BME280;5827;49.482;7.716;2023-05-12T06:34:28;98616.09;;;15.37;100.00
11542;BME280;5827;49.482;7.716;2023-05-12T06:36:31;98616.38;;;15.41;100.00
11542;BME280;5827;49.482;7.716;2023-05-12T06:38:32;98613.09;;;15.44;100.00
11542;BME280;5827;49.482;7.716;2023-05-12T06:40:34;98617.72;;;15.38;100.00
11542;BME280;5827;49.482;7.716;2023-05-12T06:42:35;98616.88;;;15.43;100.00
11542;BME280;5827;49.482;7.716;2023-05-12T06:44:37;98613.28;;;15.08;100.00
11542;BME280;5827;49.482;7.716;2023-05-12T06:46:38;98617.34;;;15.00;100.00
11542;BME280;5827;49.482;7.716;2023-05-12T06:48:39;98616.25;;;15.02;100.00
11542;BME280;5827;49.482;7.716;2023-05-12T06:50:41;98616.94;;;15.33;100.00
11542;BME280;5827;49.482;7.716;2023-05-12T06:52:44;98617.72;;;15.38;100.00
11542;BME280;5827;49.482;7.716;2023-05-12T06:54:46;98621.19;;;15.44;100.00
11542;BME280;5827;49.482;7.716;2023-05-12T06:56:47;98626.88;;;15.42;100.00
11542;BME280;5827;49.482;7.716;2023-05-12T06:58:48;98626.50;;;15.64;100.00
11542;BME280;5827;49.482;7.716;2023-05-12T07:00:51;98631.34;;;15.13;100.00
11542;BME280;5827;49.482;7.716;2023-05-12T07:02:52;98629.00;;;15.50;100.00
11542;BME280;5827;49.482;7.716;2023-05-12T07:04:54;98624.53;;;15.75;100.00
11542;BME280;5827;49.482;7.716;2023-05-12T07:06:56;98625.09;;;15.77;100.00
11542;BME280;5827;49.482;7.716;2023-05-12T07:08:59;98627.91;;;15.96;100.00
11542;BME280;5827;49.482;7.716;2023-05-12T07:11:00;98623.19;;;15.78;100.00
11542;BME280;5827;49.482;7.716;2023-05-12T07:13:02;98621.63;;;15.71;100.00
11542;BME280;5827;49.482;7.716;2023-05-12T07:15:04;98625.69;;;15.69;100.00
11542;BME280;5827;49.482;7.716;2023-05-12T07:17:06;98618.81;;;15.87;100.00
11542;BME280;5827;49.482;7.716;2023-05-12T07:19:08;98621.53;;;15.82;100.00
11542;BME280;5827;49.482;7.716;2023-05-12T07:21:09;98624.13;;;15.47;100.00
11542;BME280;5827;49.482;7.716;2023-05-12T07:23:11;98626.59;;;15.44;100.00
11542;BME280;5827;49.482;7.716;2023-05-12T07:25:13;98623.25;;;15.62;100.00
11542;BME280;5827;49.482;7.716;2023-05-12T07:27:16;98629.69;;;15.77;100.00
11542;BME280;5827;49.482;7.716;2023-05-12T07:29:17;98632.31;;;15.87;100.00
11542;BME280;5827;49.482;7.716;2023-05-12T07:31:19;98622.03;;;15.34;100.00
11542;BME280;5827;49.482;7.716;2023-05-12T07:33:20;98628.09;;;15.70;100.00
11542;BME280;5827;49.482;7.716;2023-05-12T07:35:22;98639.31;;;15.88;100.00
11542;BME280;5827;49.482;7.716;2023-05-12T07:37:23;98631.88;;;16.09;100.00
11542;BME280;5827;49.482;7.716;2023-05-12T07:39:25;98634.47;;;15.85;100.00
11542;BME280;5827;49.482;7.716;2023-05-12T07:41:28;98628.56;;;16.17;100.00
11542;BME280;5827;49.482;7.716;2023-05-12T07:43:29;98629.47;;;16.36;100.00
11542;BME280;5827;49.482;7.716;2023-05-12T07:45:31;98636.44;;;16.42;99.74
11542;BME280;5827;49.482;7.716;2023-05-12T07:47:32;98636.09;;;16.49;100.00
11542;BME280;5827;49.482;7.716;2023-05-12T07:49:34;98628.34;;;16.13;99.99
11542;BME280;5827;49.482;7.716;2023-05-12T07:51:35;98632.25;;;16.26;100.00
11542;BME280;5827;49.482;7.716;2023-05-12T07:53:37;98630.47;;;16.45;99.21
11542;BME280;5827;49.482;7.716;2023-05-12T07:55:39;98634.00;;;15.78;99.84
11542;BME280;5827;49.482;7.716;2023-05-12T07:57:43;98627.38;;;15.99;100.00
11542;BME280;5827;49.482;7.716;2023-05-12T07:59:45;98633.69;;;16.18;100.00
11542;BME280;5827;49.482;7.716;2023-05-12T08:01:46;98633.78;;;16.37;100.00
11542;BME280;5827;49.482;7.716;2023-05-12T08:03:48;98639.75;;;16.05;99.72
11542;BME280;5827;49.482;7.716;2023-05-12T08:05:50;98630.97;;;15.84;100.00
11542;BME280;5827;49.482;7.716;2023-05-12T08:07:51;98631.97;;;15.93;100.00
11542;BME280;5827;49.482;7.716;2023-05-12T08:09:53;98629.44;;;16.07;100.00
11542;BME280;5827;49.482;7.716;2023-05-12T08:11:55;98637.56;;;15.68;100.00
11542;BME280;5827;49.482;7.716;2023-05-12T08:13:59;98628.81;;;15.32;100.00
11542;BME280;5827;49.482;7.716;2023-05-12T08:16:01;98638.72;;;15.46;100.00
11542;BME280;5827;49.482;7.716;2023-05-12T08:18:04;98634.31;;;15.66;100.00
11542;BME280;5827;49.482;7.716;2023-05-12T08:20:07;98631.72;;;15.95;100.00
11542;BME280;5827;49.482;7.716;2023-05-12T08:22:09;98645.41;;;15.59;100.00
11542;BME280;5827;49.482;7.716;2023-05-12T08:24:11;98642.38;;;15.76;100.00
11542;BME280;5827;49.482;7.716;2023-05-12T08:26:13;98634.34;;;16.05;100.00
11542;BME280;5827;49.482;7.716;2023-05-12T08:28:14;98644.00;;;15.77;100.00
11542;BME280;5827;49.482;7.716;2023-05-12T08:30:17;98639.16;;;15.74;100.00
11542;BME280;5827;49.482;7.716;2023-05-12T08:32:19;98643.00;;;16.02;100.00
11542;BME280;5827;49.482;7.716;2023-05-12T08:34:21;98638.75;;;16.25;100.00
11542;BME280;5827;49.482;7.716;2023-05-12T08:36:22;98640.66;;;16.24;100.00
11542;BME280;5827;49.482;7.716;2023-05-12T08:38:23;98638.06;;;16.14;100.00
11542;BME280;5827;49.482;7.716;2023-05-12T08:40:29;98647.84;;;16.05;100.00
11542;BME280;5827;49.482;7.716;2023-05-12T08:42:36;98647.31;;;16.03;100.00
11542;BME280;5827;49.482;7.716;2023-05-12T08:44:42;98646.91;;;16.20;99.77
11542;BME280;5827;49.482;7.716;2023-05-12T08:46:46;98657.44;;;16.26;97.37
11542;BME280;5827;49.482;7.716;2023-05-12T08:48:49;98649.53;;;16.30;97.34
11542;BME280;5827;49.482;7.716;2023-05-12T08:50:53;98647.94;;;15.95;100.00
11542;BME280;5827;49.482;7.716;2023-05-12T08:52:55;98653.66;;;16.22;98.85
11542;BME280;5827;49.482;7.716;2023-05-12T08:54:57;98658.75;;;16.58;96.68
11542;BME280;5827;49.482;7.716;2023-05-12T08:56:59;98657.38;;;16.61;96.39
11542;BME280;5827;49.482;7.716;2023-05-12T08:59:02;98663.53;;;16.66;97.09
11542;BME280;5827;49.482;7.716;2023-05-12T09:01:05;98659.63;;;16.48;95.37
11542;BME280;5827;49.482;7.716;2023-05-12T09:03:11;98653.63;;;16.86;97.24
11542;BME280;5827;49.482;7.716;2023-05-12T09:05:13;98657.84;;;16.97;96.60
11542;BME280;5827;49.482;7.716;2023-05-12T09:07:14;98661.75;;;16.57;93.55
11542;BME280;5827;49.482;7.716;2023-05-12T09:09:17;98661.69;;;16.62;93.88
11542;BME280;5827;49.482;7.716;2023-05-12T09:11:20;98662.28;;;16.88;95.66
11542;BME280;5827;49.482;7.716;2023-05-12T09:13:27;98664.09;;;16.34;94.91
11542;BME280;5827;49.482;7.716;2023-05-12T09:15:33;98672.19;;;16.68;93.67
11542;BME280;5827;49.482;7.716;2023-05-12T09:17:35;98666.69;;;16.49;92.46
11542;BME280;5827;49.482;7.716;2023-05-12T09:19:38;98658.28;;;16.51;94.84
11542;BME280;5827;49.482;7.716;2023-05-12T09:21:39;98666.75;;;16.73;92.79
11542;BME280;5827;49.482;7.716;2023-05-12T09:23:51;98670.19;;;16.50;92.73
11542;BME280;5827;49.482;7.716;2023-05-12T09:25:58;98660.13;;;16.26;94.45
11542;BME280;5827;49.482;7.716;2023-05-12T09:28:00;98666.44;;;16.46;92.80
11542;BME280;5827;49.482;7.716;2023-05-12T09:30:02;98660.09;;;15.92;94.60
11542;BME280;5827;49.482;7.716;2023-05-12T09:32:04;98657.72;;;16.54;95.77
11542;BME280;5827;49.482;7.716;2023-05-12T09:34:07;98656.00;;;16.63;95.59
11542;BME280;5827;49.482;7.716;2023-05-12T09:36:10;98658.94;;;16.67;92.65
11542;BME280;5827;49.482;7.716;2023-05-12T09:38:13;98657.97;;;16.52;94.53
11542;BME280;5827;49.482;7.716;2023-05-12T09:40:14;98667.38;;;16.60;92.00
11542;BME280;5827;49.482;7.716;2023-05-12T09:42:33;98660.97;;;16.51;93.45
11542;BME280;5827;49.482;7.716;2023-05-12T09:44:45;98651.75;;;16.86;94.08
11542;BME280;5827;49.482;7.716;2023-05-12T09:46:47;98668.13;;;16.95;89.95
11542;BME280;5827;49.482;7.716;2023-05-12T09:48:49;98665.28;;;16.86;90.67
11542;BME280;5827;49.482;7.716;2023-05-12T09:50:51;98656.34;;;17.10;92.01
11542;BME280;5827;49.482;7.716;2023-05-12T09:52:54;98663.25;;;17.21;90.33
11542;BME280;5827;49.482;7.716;2023-05-12T09:54:55;98660.25;;;17.22;89.27
11542;BME280;5827;49.482;7.716;2023-05-12T09:56:58;98662.59;;;16.81;89.97
11542;BME280;5827;49.482;7.716;2023-05-12T09:59:02;98663.97;;;17.50;90.21
11542;BME280;5827;49.482;7.716;2023-05-12T10:01:04;98673.19;;;17.68;84.87
11542;BME280;5827;49.482;7.716;2023-05-12T10:03:11;98671.44;;;16.92;88.25
11542;BME280;5827;49.482;7.716;2023-05-12T10:05:14;98665.16;;;16.96;88.31
11542;BME280;5827;49.482;7.716;2023-05-12T10:07:20;98662.22;;;16.93;87.34
11542;BME280;5827;49.482;7.716;2023-05-12T10:09:30;98661.25;;;17.74;88.07
11542;BME280;5827;49.482;7.716;2023-05-12T10:11:33;98675.97;;;17.63;84.60
11542;BME280;5827;49.482;7.716;2023-05-12T10:13:35;98672.56;;;16.86;85.03
11542;BME280;5827;49.482;7.716;2023-05-12T10:15:37;98670.53;;;17.01;85.94
11542;BME280;5827;49.482;7.716;2023-05-12T10:17:39;98669.09;;;17.52;86.50
11542;BME280;5827;49.482;7.716;2023-05-12T10:19:41;98673.59;;;16.90;86.31
11542;BME280;5827;49.482;7.716;2023-05-12T10:21:43;98667.84;;;17.44;84.85
11542;BME280;5827;49.482;7.716;2023-05-12T10:23:46;98674.38;;;16.95;84.33
11542;BME280;5827;49.482;7.716;2023-05-12T10:25:50;98665.34;;;17.05;86.07
11542;BME280;5827;49.482;7.716;2023-05-12T10:27:54;98665.63;;;17.27;87.25
11542;BME280;5827;49.482;7.716;2023-05-12T10:29:56;98672.69;;;17.47;87.03
11542;BME280;5827;49.482;7.716;2023-05-12T10:31:58;98672.41;;;17.25;87.66
11542;BME280;5827;49.482;7.716;2023-05-12T10:34:02;98666.53;;;17.18;89.64
11542;BME280;5827;49.482;7.716;2023-05-12T10:36:04;98662.81;;;17.14;89.34
11542;BME280;5827;49.482;7.716;2023-05-12T10:38:16;98660.88;;;17.38;90.14
11542;BME280;5827;49.482;7.716;2023-05-12T10:40:22;98668.38;;;17.46;87.46
11542;BME280;5827;49.482;7.716;2023-05-12T10:42:25;98663.47;;;17.24;88.68
11542;BME280;5827;49.482;7.716;2023-05-12T10:44:27;98659.09;;;17.28;89.33
11542;BME280;5827;49.482;7.716;2023-05-12T10:46:29;98658.03;;;16.76;91.92
11542;BME280;5827;49.482;7.716;2023-05-12T10:48:30;98660.66;;;17.11;91.28
11542;BME280;5827;49.482;7.716;2023-05-12T10:50:31;98664.66;;;17.18;90.66